Time;durP1;ratioP1;P1;durP2;ratioP2;P2;SDS_P1;SDS_P2;PMS_P1;PMS_P2;Temp;Humidity;BMP_temperature;BMP_pressure;BME280_temperature;BME280_humidity;BME280_pressure;Samples;Min_cycle;Max_cycle;Signal;HPM_P1;HPM_P2
2022/08/29 00:01:35;;;;;;;6.43;2.05;;;17.40;95.70;;;;;;5070289;28;20025;-81
2022/08/29 00:04:01;;;;;;;4.53;1.50;;;17.40;95.60;;;;;;5073007;28;20032;-81
2022/08/29 00:06:27;;;;;;;4.03;1.80;;;17.30;95.70;;;;;;5070321;28;20085;-80
2022/08/29 00:08:53;;;;;;;5.40;2.30;;;17.30;95.70;;;;;;5074459;28;20028;-80
2022/08/29 00:11:18;;;;;;;4.47;2.20;;;17.20;95.70;;;;;;5073638;28;20605;-80
2022/08/29 00:13:44;;;;;;;3.60;2.03;;;17.20;95.60;;;;;;5071815;28;20040;-81
2022/08/29 00:16:10;;;;;;;4.80;1.95;;;17.20;95.50;;;;;;5070393;28;20033;-81
2022/08/29 00:18:35;;;;;;;9.45;2.58;;;17.10;95.50;;;;;;5072240;28;20453;-80
2022/08/29 00:21:02;;;;;;;5.35;2.20;;;17.10;95.40;;;;;;5070281;28;20031;-82
2022/08/29 00:23:28;;;;;;;6.45;2.13;;;17.00;95.40;;;;;;5073731;28;20548;-80
2022/08/29 00:25:55;;;;;;;6.70;1.88;;;17.00;95.40;;;;;;5079021;28;20147;-81
2022/08/29 00:28:20;;;;;;;4.05;2.20;;;17.00;95.50;;;;;;5072289;28;20021;-79
2022/08/29 00:30:46;;;;;;;4.38;1.88;;;17.00;95.40;;;;;;5071235;28;20149;-79
2022/08/29 00:33:11;;;;;;;6.35;2.05;;;16.90;95.40;;;;;;5071277;28;20033;-80
2022/08/29 00:35:40;;;;;;;6.63;2.28;;;16.90;95.40;;;;;;5073035;28;20028;-79
2022/08/29 00:38:07;;;;;;;4.90;2.15;;;16.90;95.30;;;;;;5071980;28;20476;-82
2022/08/29 00:40:40;;;;;;;5.53;2.38;;;16.90;95.60;;;;;;5071064;28;20052;-80
2022/08/29 00:43:06;;;;;;;6.47;2.35;;;16.90;95.90;;;;;;5069578;28;20039;-81
2022/08/29 00:45:34;;;;;;;9.45;2.70;;;16.90;95.90;;;;;;5070106;28;20107;-80
2022/08/29 00:48:14;;;;;;;4.22;1.70;;;16.90;96.20;;;;;;5069823;28;20062;-80
2022/08/29 00:50:47;;;;;;;5.13;2.33;;;16.80;96.30;;;;;;5070111;28;20507;-80
2022/08/29 00:53:15;;;;;;;6.15;2.70;;;16.80;96.10;;;;;;5073675;28;20158;-79
2022/08/29 00:55:43;;;;;;;5.85;1.90;;;16.70;96.00;;;;;;5064319;28;20107;-81
2022/08/29 00:58:19;;;;;;;4.88;2.22;;;16.70;96.10;;;;;;5069979;28;20032;-80
2022/08/29 01:00:45;;;;;;;5.07;2.28;;;16.70;96.40;;;;;;5079675;28;20052;-79
2022/08/29 01:03:12;;;;;;;8.07;2.92;;;16.70;96.00;;;;;;5075608;28;20024;-80
2022/08/29 01:05:37;;;;;;;9.40;2.70;;;16.60;96.10;;;;;;5073761;28;20019;-79
2022/08/29 01:08:04;;;;;;;5.43;2.10;;;16.70;96.20;;;;;;5084408;28;20056;-79
2022/08/29 01:13:14;;;;;;;5.18;2.60;;;16.60;96.20;;;;;;5074850;28;20031;-79
2022/08/29 01:15:42;;;;;;;5.30;2.28;;;16.60;96.30;;;;;;5070376;28;20427;-80
2022/08/29 01:18:10;;;;;;;5.35;2.45;;;16.50;96.00;;;;;;5074151;28;20370;-79
2022/08/29 01:21:17;;;;;;;7.93;2.20;;;16.50;95.90;;;;;;5069000;28;20036;-80
2022/08/29 01:24:04;;;;;;;5.53;2.17;;;16.50;96.10;;;;;;4992053;28;20034;-80
2022/08/29 01:26:31;;;;;;;6.00;2.22;;;16.50;96.10;;;;;;5067967;28;20043;-80
2022/08/29 01:28:57;;;;;;;6.30;3.05;;;16.40;96.20;;;;;;5070344;28;20032;-82
2022/08/29 01:31:26;;;;;;;5.50;2.38;;;16.40;96.30;;;;;;5075899;28;20032;-80
2022/08/29 01:33:58;;;;;;;6.10;2.55;;;16.40;96.30;;;;;;5071236;28;20106;-80
2022/08/29 01:36:42;;;;;;;7.03;2.88;;;16.40;96.20;;;;;;5069652;28;20036;-81
2022/08/29 01:39:08;;;;;;;5.18;2.53;;;16.30;96.20;;;;;;5069358;28;20371;-79
2022/08/29 01:41:34;;;;;;;4.70;2.30;;;16.30;96.30;;;;;;5068899;28;20036;-80
2022/08/29 01:44:06;;;;;;;6.35;2.30;;;16.30;96.50;;;;;;5068709;28;20032;-80
2022/08/29 01:46:33;;;;;;;7.82;3.00;;;16.30;96.50;;;;;;5068386;28;20075;-81
2022/08/29 01:49:02;;;;;;;5.88;2.72;;;16.30;96.50;;;;;;5070122;28;20043;-82
2022/08/29 01:51:27;;;;;;;8.45;3.65;;;16.20;96.50;;;;;;5075854;28;20047;-80
2022/08/29 01:53:53;;;;;;;6.70;2.85;;;16.20;96.80;;;;;;5069838;28;20033;-79
2022/08/29 01:56:24;;;;;;;6.38;2.15;;;16.10;96.80;;;;;;5067734;28;20024;-80
2022/08/29 01:58:51;;;;;;;8.13;2.60;;;16.10;96.70;;;;;;5071546;28;20136;-81
2022/08/29 02:01:21;;;;;;;5.00;3.30;;;16.10;96.90;;;;;;5066131;28;20440;-81
2022/08/29 02:03:46;;;;;;;9.55;2.58;;;16.10;96.80;;;;;;5067562;28;20560;-81
2022/08/29 02:06:12;;;;;;;4.63;2.75;;;16.00;96.80;;;;;;5069116;28;20111;-80
2022/08/29 02:08:39;;;;;;;6.32;2.65;;;16.00;96.60;;;;;;5075075;28;20025;-81
2022/08/29 02:11:10;;;;;;;6.07;2.63;;;16.00;96.50;;;;;;5066168;28;20023;-81
2022/08/29 02:13:51;;;;;;;7.07;2.65;;;16.00;96.70;;;;;;5070410;28;20025;-79
2022/08/29 02:16:17;;;;;;;6.78;2.72;;;16.00;96.50;;;;;;5071163;28;20047;-81
2022/08/29 02:18:43;;;;;;;8.45;3.50;;;15.90;96.50;;;;;;5072907;28;20024;-81
2022/08/29 02:21:13;;;;;;;8.07;3.17;;;15.90;96.60;;;;;;5069103;28;20430;-81
2022/08/29 02:23:40;;;;;;;5.32;2.92;;;15.90;96.50;;;;;;5068633;28;20082;-80
2022/08/29 02:26:06;;;;;;;10.52;3.53;;;15.90;96.60;;;;;;5075842;28;20035;-81
2022/08/29 02:28:32;;;;;;;6.00;3.25;;;15.90;96.80;;;;;;5074747;28;20017;-82
2022/08/29 02:30:58;;;;;;;8.55;3.38;;;15.90;96.50;;;;;;5072094;28;20016;-81
2022/08/29 02:33:25;;;;;;;4.05;2.53;;;15.90;96.60;;;;;;5074380;28;20086;-82
2022/08/29 02:35:52;;;;;;;8.10;2.88;;;15.90;96.50;;;;;;5067519;28;20048;-80
2022/08/29 02:38:18;;;;;;;4.68;2.58;;;15.90;96.60;;;;;;5069958;28;20028;-82
2022/08/29 02:40:45;;;;;;;7.53;3.00;;;15.90;96.40;;;;;;5068120;28;20069;-82
2022/08/29 02:43:10;;;;;;;8.35;2.92;;;15.80;96.60;;;;;;5067449;28;20532;-81
2022/08/29 02:45:39;;;;;;;9.32;3.17;;;15.80;96.50;;;;;;5068801;28;20040;-83
2022/08/29 02:48:05;;;;;;;5.30;2.67;;;15.80;96.60;;;;;;5067602;28;20033;-82
2022/08/29 02:50:30;;;;;;;4.63;2.70;;;15.80;96.60;;;;;;5067174;28;20031;-81
2022/08/29 02:52:56;;;;;;;5.32;2.72;;;15.80;96.80;;;;;;5073811;28;20024;-81
2022/08/29 02:55:24;;;;;;;10.07;2.88;;;15.80;96.80;;;;;;5071182;28;20029;-83
2022/08/29 02:57:51;;;;;;;6.30;2.60;;;15.80;96.80;;;;;;5068556;28;20112;-81
2022/08/29 03:00:20;;;;;;;8.50;3.13;;;15.80;96.90;;;;;;5074095;28;20016;-80
2022/08/29 03:02:46;;;;;;;8.88;3.53;;;15.80;97.00;;;;;;5071175;28;20033;-81
2022/08/29 03:05:13;;;;;;;6.80;2.90;;;15.80;97.00;;;;;;5077116;28;20028;-80
2022/08/29 03:07:38;;;;;;;6.30;2.97;;;15.70;97.00;;;;;;5068922;28;20048;-81
2022/08/29 03:10:06;;;;;;;11.27;3.80;;;15.70;97.20;;;;;;5067550;28;20054;-82
2022/08/29 03:12:32;;;;;;;5.97;2.92;;;15.70;97.20;;;;;;5072592;28;20063;-81
2022/08/29 03:14:57;;;;;;;7.50;3.20;;;15.70;97.20;;;;;;5069039;28;20031;-82
2022/08/29 03:17:23;;;;;;;6.80;3.47;;;15.70;97.40;;;;;;5069100;28;20033;-80
2022/08/29 03:19:48;;;;;;;6.53;3.40;;;15.70;97.40;;;;;;5069290;28;20052;-81
2022/08/29 03:22:14;;;;;;;6.07;3.05;;;15.60;97.70;;;;;;5070361;28;20032;-82
2022/08/29 03:24:40;;;;;;;7.32;3.53;;;15.60;97.90;;;;;;5067454;28;20078;-83
2022/08/29 03:27:05;;;;;;;8.15;3.50;;;15.50;98.10;;;;;;5066680;28;20105;-80
2022/08/29 03:29:31;;;;;;;5.90;3.20;;;15.50;98.00;;;;;;5072236;28;20021;-82
2022/08/29 03:31:57;;;;;;;7.00;2.78;;;15.50;98.50;;;;;;5078812;28;20474;-81
2022/08/29 03:34:26;;;;;;;4.97;3.00;;;15.50;98.30;;;;;;5071923;28;20025;-81
2022/08/29 03:36:52;;;;;;;6.60;2.90;;;15.50;98.30;;;;;;5082950;28;20094;-82
2022/08/29 03:39:17;;;;;;;11.27;3.60;;;15.40;98.30;;;;;;5072524;28;20620;-79
2022/08/29 03:41:43;;;;;;;7.20;2.78;;;15.40;98.30;;;;;;5071743;28;20028;-78
2022/08/29 03:44:08;;;;;;;4.50;3.03;;;15.40;98.10;;;;;;5070946;28;20032;-82
2022/08/29 03:46:38;;;;;;;6.22;2.80;;;15.40;98.30;;;;;;5076521;28;20032;-80
2022/08/29 03:49:05;;;;;;;3.83;2.15;;;15.40;98.40;;;;;;5090914;28;20101;-78
2022/08/29 03:51:35;;;;;;;7.15;3.08;;;15.40;98.40;;;;;;5075554;28;20020;-79
2022/08/29 03:54:00;;;;;;;8.85;3.30;;;15.40;98.60;;;;;;5076435;28;20115;-81
2022/08/29 03:56:27;;;;;;;5.82;3.08;;;15.30;98.50;;;;;;5068484;28;20111;-81
2022/08/29 03:58:53;;;;;;;6.82;3.20;;;15.30;98.50;;;;;;5065781;28;20024;-79
2022/08/29 04:01:21;;;;;;;6.65;3.05;;;15.30;98.30;;;;;;5069825;28;20027;-80
2022/08/29 04:03:46;;;;;;;5.70;2.95;;;15.20;98.20;;;;;;5071995;28;20020;-81
2022/08/29 04:06:12;;;;;;;9.05;3.13;;;15.20;98.20;;;;;;5070378;28;20032;-81
2022/08/29 04:08:37;;;;;;;6.63;3.38;;;15.20;98.20;;;;;;5071523;28;20032;-81
2022/08/29 04:11:11;;;;;;;6.57;2.95;;;15.20;98.30;;;;;;5072053;28;20056;-80
2022/08/29 04:13:36;;;;;;;6.03;2.80;;;15.20;98.50;;;;;;5072178;28;20032;-79
2022/08/29 04:16:11;;;;;;;9.68;3.17;;;15.10;98.60;;;;;;5069913;28;20542;-79
2022/08/29 04:18:37;;;;;;;6.05;3.25;;;15.10;98.60;;;;;;5078197;28;20047;-80
2022/08/29 04:21:04;;;;;;;7.80;3.03;;;15.10;98.60;;;;;;5081663;28;20476;-80
2022/08/29 04:23:31;;;;;;;10.25;3.78;;;15.10;98.60;;;;;;5071141;28;20044;-81
2022/08/29 04:25:56;;;;;;;6.38;2.60;;;15.10;98.60;;;;;;5070389;28;20031;-80
2022/08/29 04:28:22;;;;;;;8.43;2.90;;;15.10;98.80;;;;;;5072336;28;20640;-79
2022/08/29 04:30:49;;;;;;;8.18;2.72;;;15.10;98.90;;;;;;5070319;28;20495;-81
2022/08/29 04:33:16;;;;;;;6.18;2.75;;;15.10;98.90;;;;;;5084968;28;20039;-80
2022/08/29 04:35:41;;;;;;;8.77;3.50;;;15.10;98.90;;;;;;5064906;28;20028;-81
2022/08/29 04:38:07;;;;;;;6.95;3.10;;;15.10;98.90;;;;;;5082670;28;20396;-79
2022/08/29 04:40:35;;;;;;;7.68;3.15;;;15.10;98.90;;;;;;5074375;28;20452;-81
2022/08/29 04:43:01;;;;;;;10.10;3.40;;;15.00;99.10;;;;;;5083889;28;20094;-80
2022/08/29 04:45:26;;;;;;;10.63;3.47;;;15.10;99.00;;;;;;5084400;28;20029;-81
2022/08/29 04:47:52;;;;;;;4.80;3.00;;;15.10;99.30;;;;;;5089758;28;20080;-79
2022/08/29 04:50:21;;;;;;;6.40;3.08;;;15.10;99.40;;;;;;5085337;28;20028;-82
2022/08/29 04:52:47;;;;;;;6.78;3.05;;;15.10;99.30;;;;;;5088143;28;20028;-81
2022/08/29 04:55:15;;;;;;;6.72;3.58;;;15.00;99.30;;;;;;5070647;28;20204;-81
2022/08/29 04:57:40;;;;;;;5.40;2.78;;;15.10;99.40;;;;;;5070922;28;20121;-79
2022/08/29 05:00:11;;;;;;;6.10;2.60;;;15.00;99.30;;;;;;5070859;28;20561;-81
2022/08/29 05:02:37;;;;;;;6.75;3.47;;;15.00;99.30;;;;;;5063826;28;20039;-80
2022/08/29 05:05:03;;;;;;;8.95;3.47;;;15.10;99.30;;;;;;5065805;28;20033;-81
2022/08/29 05:07:28;;;;;;;6.88;3.58;;;15.10;99.30;;;;;;5067185;28;20736;-81
2022/08/29 05:09:57;;;;;;;7.63;3.30;;;15.10;99.30;;;;;;5069348;28;20503;-81
2022/08/29 05:12:24;;;;;;;10.40;3.60;;;15.10;99.30;;;;;;5078653;28;20032;-79
2022/08/29 05:14:50;;;;;;;8.45;4.13;;;15.10;99.40;;;;;;5075498;28;20032;-80
2022/08/29 05:17:16;;;;;;;9.95;3.90;;;15.10;99.40;;;;;;5077945;28;20275;-80
2022/08/29 05:19:42;;;;;;;7.10;3.55;;;15.20;99.30;;;;;;5066723;28;20043;-78
2022/08/29 05:22:09;;;;;;;10.63;3.60;;;15.20;99.30;;;;;;5065830;28;20482;-79
2022/08/29 05:24:36;;;;;;;10.57;3.72;;;15.20;99.40;;;;;;5065991;28;20032;-80
2022/08/29 05:27:07;;;;;;;8.35;4.28;;;15.20;99.20;;;;;;5067227;28;20028;-79
2022/08/29 05:29:32;;;;;;;12.60;3.58;;;15.30;99.20;;;;;;5066548;28;20032;-79
2022/08/29 05:31:58;;;;;;;7.25;3.95;;;15.30;99.10;;;;;;5066480;28;20020;-79
2022/08/29 05:34:23;;;;;;;7.60;4.18;;;15.30;99.10;;;;;;5066648;28;21453;-79
2022/08/29 05:36:49;;;;;;;7.75;3.75;;;15.30;99.00;;;;;;5061900;28;20051;-82
2022/08/29 05:39:15;;;;;;;15.73;4.45;;;15.40;99.20;;;;;;5061234;28;20032;-81
2022/08/29 05:41:41;;;;;;;10.35;3.47;;;15.50;99.30;;;;;;5062922;28;20025;-85
2022/08/29 05:44:06;;;;;;;8.05;3.78;;;15.50;99.30;;;;;;5065574;28;20036;-80
2022/08/29 05:46:32;;;;;;;10.50;3.60;;;15.50;99.00;;;;;;5057094;28;20028;-81
2022/08/29 05:48:57;;;;;;;8.32;3.35;;;15.60;99.30;;;;;;5066342;28;20125;-80
2022/08/29 05:51:23;;;;;;;10.00;3.92;;;15.60;99.20;;;;;;5056578;28;20469;-78
2022/08/29 05:53:49;;;;;;;10.88;3.65;;;15.60;99.10;;;;;;5066413;28;20025;-78
2022/08/29 05:56:23;;;;;;;7.32;3.55;;;15.60;98.70;;;;;;5061204;28;20044;-78
2022/08/29 05:58:49;;;;;;;9.82;4.03;;;15.60;98.70;;;;;;5060903;28;20027;-79
2022/08/29 06:01:24;;;;;;;7.75;3.42;;;15.70;98.80;;;;;;5068358;28;20024;-79
2022/08/29 06:03:50;;;;;;;9.00;3.50;;;15.70;98.60;;;;;;5067358;28;20032;-78
2022/08/29 06:06:19;;;;;;;12.15;3.38;;;15.80;98.50;;;;;;5064261;28;20029;-79
2022/08/29 06:08:44;;;;;;;12.95;4.05;;;15.80;98.80;;;;;;5063532;28;20028;-81
2022/08/29 06:11:18;;;;;;;12.23;4.18;;;15.80;98.60;;;;;;5073810;28;20036;-79
2022/08/29 06:13:44;;;;;;;10.65;4.38;;;15.80;98.50;;;;;;5062558;28;20036;-79
2022/08/29 06:16:11;;;;;;;8.32;3.65;;;15.90;98.50;;;;;;5068289;28;20086;-79
2022/08/29 06:18:37;;;;;;;10.13;4.20;;;15.90;98.30;;;;;;5066875;28;20021;-77
2022/08/29 06:21:04;;;;;;;9.98;3.45;;;16.00;98.40;;;;;;5065508;28;20044;-78
2022/08/29 06:23:30;;;;;;;8.25;3.08;;;16.10;98.40;;;;;;5065220;28;20384;-79
2022/08/29 06:25:56;;;;;;;7.70;3.17;;;16.10;98.20;;;;;;5061831;28;20029;-79
2022/08/29 06:28:22;;;;;;;12.35;4.10;;;16.20;98.20;;;;;;5069827;28;20055;-78
2022/08/29 06:30:47;;;;;;;6.10;2.55;;;16.30;97.90;;;;;;5061692;28;20064;-79
2022/08/29 06:33:13;;;;;;;8.82;2.97;;;16.30;98.20;;;;;;5067210;28;20035;-79
2022/08/29 06:35:38;;;;;;;11.13;3.40;;;16.40;98.10;;;;;;5066752;28;20048;-79
2022/08/29 06:38:04;;;;;;;8.25;2.78;;;16.50;98.00;;;;;;5064128;28;20028;-80
2022/08/29 06:40:30;;;;;;;8.23;3.42;;;16.50;98.10;;;;;;5061605;28;20035;-80
2022/08/29 06:42:55;;;;;;;9.25;3.40;;;16.60;98.10;;;;;;5064118;28;20032;-79
2022/08/29 06:45:21;;;;;;;7.80;3.30;;;16.70;98.10;;;;;;5060004;28;20024;-79
2022/08/29 06:47:47;;;;;;;8.18;2.65;;;16.70;97.70;;;;;;5058113;28;20021;-80
2022/08/29 06:50:14;;;;;;;6.40;2.47;;;16.80;97.90;;;;;;5069188;28;20024;-81
2022/08/29 06:52:40;;;;;;;6.80;2.88;;;16.90;97.70;;;;;;5059079;28;20059;-79
2022/08/29 06:55:10;;;;;;;6.45;3.00;;;16.90;97.70;;;;;;5076151;28;20048;-79
2022/08/29 06:57:36;;;;;;;7.47;2.65;;;17.00;97.40;;;;;;5059855;28;20616;-78
2022/08/29 07:00:03;;;;;;;5.80;2.85;;;17.00;97.50;;;;;;5069598;28;20496;-79
2022/08/29 07:02:28;;;;;;;8.32;3.13;;;17.10;97.30;;;;;;5066091;28;20017;-79
2022/08/29 07:04:54;;;;;;;9.40;3.00;;;17.20;96.90;;;;;;5065669;28;20673;-79
2022/08/29 07:07:19;;;;;;;9.13;2.63;;;17.20;96.70;;;;;;5068696;28;20095;-79
2022/08/29 07:09:45;;;;;;;9.40;3.20;;;17.30;96.70;;;;;;5069277;28;20073;-80
2022/08/29 07:12:10;;;;;;;5.88;2.70;;;17.30;96.40;;;;;;5069593;28;20381;-79
2022/08/29 07:14:36;;;;;;;7.05;2.88;;;17.40;96.40;;;;;;5072477;28;20051;-79
2022/08/29 07:17:02;;;;;;;6.40;3.25;;;17.50;96.20;;;;;;5074314;28;20021;-80
2022/08/29 07:19:27;;;;;;;9.15;2.85;;;17.60;96.20;;;;;;5066403;28;20112;-80
2022/08/29 07:21:53;;;;;;;9.10;2.42;;;17.70;96.20;;;;;;5069665;28;20081;-79
2022/08/29 07:24:18;;;;;;;9.90;1.95;;;17.80;95.90;;;;;;5071146;28;20024;-79
2022/08/29 07:26:44;;;;;;;7.55;3.15;;;17.80;95.70;;;;;;5073033;28;20036;-79
2022/08/29 07:29:14;;;;;;;8.52;2.60;;;17.90;95.60;;;;;;5064353;28;20633;-79
2022/08/29 07:31:40;;;;;;;6.35;2.65;;;18.00;95.70;;;;;;5066064;28;20072;-78
2022/08/29 07:34:06;;;;;;;3.13;2.17;;;18.20;95.80;;;;;;5066197;28;20059;-80
2022/08/29 07:36:32;;;;;;;3.85;2.30;;;18.30;95.70;;;;;;5068289;28;20048;-79
2022/08/29 07:38:58;;;;;;;7.75;2.17;;;18.40;95.30;;;;;;5065317;28;20020;-80
2022/08/29 07:41:24;;;;;;;4.68;1.90;;;18.50;95.30;;;;;;5069679;28;20032;-80
2022/08/29 07:43:50;;;;;;;5.13;2.25;;;18.60;95.00;;;;;;5070578;28;20016;-79
2022/08/29 07:46:18;;;;;;;12.88;2.35;;;18.70;94.60;;;;;;5065403;28;20116;-79
2022/08/29 07:48:43;;;;;;;5.07;1.98;;;18.80;94.70;;;;;;5066004;28;20085;-79
2022/08/29 07:51:12;;;;;;;5.55;2.15;;;18.90;94.80;;;;;;5070602;28;20028;-80
2022/08/29 07:53:39;;;;;;;2.95;1.58;;;18.90;94.60;;;;;;5061632;28;20115;-79
2022/08/29 07:56:07;;;;;;;4.78;1.73;;;19.00;94.30;;;;;;5066058;28;20037;-79
2022/08/29 07:58:32;;;;;;;3.35;1.45;;;19.00;93.90;;;;;;5075903;28;20039;-79
2022/08/29 08:00:58;;;;;;;3.85;1.60;;;19.10;93.90;;;;;;5070449;28;20029;-79
2022/08/29 08:03:25;;;;;;;4.38;1.90;;;19.10;93.70;;;;;;5070565;28;20032;-79
2022/08/29 08:05:52;;;;;;;5.75;1.88;;;19.10;93.70;;;;;;5069757;28;20021;-79
2022/08/29 08:08:17;;;;;;;6.43;1.83;;;19.20;94.10;;;;;;5069971;28;20024;-81
2022/08/29 08:10:43;;;;;;;3.65;1.50;;;19.20;93.60;;;;;;5087715;28;20028;-79
2022/08/29 08:13:09;;;;;;;3.80;1.45;;;19.20;93.40;;;;;;5071385;28;20444;-80
2022/08/29 08:15:37;;;;;;;4.60;1.65;;;19.30;93.80;;;;;;5074963;28;20027;-79
2022/08/29 08:18:03;;;;;;;3.78;1.63;;;19.40;93.80;;;;;;5062662;28;20044;-81
2022/08/29 08:20:29;;;;;;;3.17;1.70;;;19.60;93.20;;;;;;5055941;28;20077;-80
2022/08/29 08:22:55;;;;;;;3.40;1.58;;;19.60;93.20;;;;;;5080608;28;20057;-80
2022/08/29 08:25:22;;;;;;;3.53;1.60;;;19.70;92.80;;;;;;5076789;28;20031;-79
2022/08/29 08:27:48;;;;;;;3.22;1.70;;;19.70;92.90;;;;;;5076366;28;20013;-80
2022/08/29 08:30:13;;;;;;;3.15;1.40;;;19.80;92.70;;;;;;5070772;28;20530;-79
2022/08/29 08:32:39;;;;;;;3.28;1.55;;;19.90;92.30;;;;;;5069947;28;20047;-78
2022/08/29 08:35:05;;;;;;;3.90;2.00;;;19.90;92.50;;;;;;5068707;28;20025;-80
2022/08/29 08:37:31;;;;;;;5.15;1.38;;;20.00;92.30;;;;;;5068720;28;20020;-79
2022/08/29 08:39:57;;;;;;;5.95;1.85;;;20.10;92.40;;;;;;5067499;28;20105;-80
2022/08/29 08:42:43;;;;;;;4.25;2.15;;;20.30;91.80;;;;;;5050126;28;20025;-80
2022/08/29 08:45:16;;;;;;;7.85;1.77;;;20.50;92.00;;;;;;5049744;28;20029;-80
2022/08/29 08:47:43;;;;;;;;;;;20.60;91.70;;;;;;5055590;28;20024;-79
2022/08/29 08:50:25;;;;;;;7.47;1.80;;;20.60;91.30;;;;;;5071799;28;19915;-79
2022/08/29 08:53:06;;;;;;;4.18;2.25;;;20.60;92.30;;;;;;5087392;28;20024;-80
2022/08/29 08:55:44;;;;;;;11.80;2.20;;;20.70;91.20;;;;;;5069462;28;20040;-79
2022/08/29 08:58:42;;;;;;;8.35;1.95;;;20.90;91.60;;;;;;5069322;28;20039;-79
2022/08/29 09:01:31;;;;;;;6.78;1.95;;;21.10;91.60;;;;;;5069454;28;20472;-79
2022/08/29 09:04:30;;;;;;;4.82;1.90;;;21.20;91.40;;;;;;5069732;28;20485;-77
2022/08/29 09:07:08;;;;;;;2.28;1.50;;;21.40;90.60;;;;;;5068118;28;20017;-77
2022/08/29 09:09:53;;;;;;;7.63;2.25;;;21.60;90.40;;;;;;5069352;28;20016;-78
2022/08/29 09:12:30;;;;;;;3.63;1.58;;;21.70;90.40;;;;;;5067867;28;20487;-79
2022/08/29 09:15:17;;;;;;;4.55;1.30;;;21.80;90.10;;;;;;5069857;28;20031;-79
2022/08/29 09:17:56;;;;;;;3.50;1.27;;;22.00;89.80;;;;;;5069009;28;20027;-78
2022/08/29 09:20:27;;;;;;;4.15;1.40;;;22.10;90.00;;;;;;5068578;28;20021;-78
2022/08/29 09:23:19;;;;;;;3.15;1.27;;;22.20;89.60;;;;;;5068055;28;20531;-78
2022/08/29 09:25:45;;;;;;;8.05;1.83;;;22.30;89.20;;;;;;5062120;28;20079;-78
2022/08/29 09:28:10;;;;;;;4.07;1.50;;;22.30;87.80;;;;;;5051526;28;20436;-79
2022/08/29 09:30:40;;;;;;;2.75;1.20;;;22.30;88.10;;;;;;5066186;28;20028;-77
2022/08/29 09:33:15;;;;;;;4.50;1.58;;;22.40;87.70;;;;;;5069318;28;20027;-79
2022/08/29 09:35:47;;;;;;;5.13;1.30;;;22.40;87.90;;;;;;5066959;28;20028;-79
2022/08/29 09:38:15;;;;;;;2.80;1.33;;;22.50;88.00;;;;;;5067428;28;20185;-78
2022/08/29 09:40:51;;;;;;;5.10;1.92;;;22.60;87.90;;;;;;5067411;28;20115;-78
2022/08/29 09:43:37;;;;;;;6.05;1.48;;;22.70;88.20;;;;;;5057342;28;20028;-78
2022/08/29 09:46:22;;;;;;;6.70;1.88;;;22.80;86.60;;;;;;5068477;28;20487;-78
2022/08/29 09:49:12;;;;;;;2.88;1.83;;;22.90;85.40;;;;;;5067665;28;20036;-78
2022/08/29 09:51:44;;;;;;;3.30;1.77;;;23.00;86.00;;;;;;5068026;28;20037;-78
2022/08/29 09:54:27;;;;;;;6.88;2.20;;;22.90;86.40;;;;;;5068797;28;20033;-78
2022/08/29 09:57:12;;;;;;;2.88;1.55;;;23.00;85.60;;;;;;5066531;28;20047;-79
2022/08/29 09:59:42;;;;;;;4.95;1.42;;;23.00;85.30;;;;;;5068884;28;20028;-79
2022/08/29 10:02:15;;;;;;;1.77;1.17;;;22.90;85.30;;;;;;5068753;28;20039;-79
2022/08/29 10:04:42;;;;;;;3.85;1.40;;;22.90;84.40;;;;;;5068694;28;20028;-78
2022/08/29 10:07:11;;;;;;;2.63;1.30;;;23.00;86.00;;;;;;5068326;28;20032;-78
2022/08/29 10:09:36;;;;;;;2.05;1.30;;;23.10;85.40;;;;;;5068688;28;20129;-78
2022/08/29 10:12:12;;;;;;;7.80;1.60;;;23.10;84.80;;;;;;5068189;28;20563;-78
2022/08/29 10:14:53;;;;;;;2.00;1.02;;;23.20;85.60;;;;;;5064051;28;20028;-78
2022/08/29 10:20:20;;;;;;;4.32;1.40;;;23.40;84.20;;;;;;5082232;28;20031;-79
2022/08/29 10:23:03;;;;;;;2.47;1.60;;;23.50;84.50;;;;;;5092565;28;20169;-79
2022/08/29 10:25:39;;;;;;;2.45;1.17;;;23.40;84.50;;;;;;5052403;28;20021;-80
2022/08/29 10:28:22;;;;;;;3.25;1.30;;;23.50;85.00;;;;;;5057678;28;20092;-79
2022/08/29 10:30:59;;;;;;;3.00;1.33;;;23.50;84.60;;;;;;5055956;28;20095;-82
2022/08/29 10:33:56;;;;;;;3.35;1.23;;;23.50;83.40;;;;;;5060816;28;20033;-82
2022/08/29 10:36:32;;;;;;;4.10;1.33;;;23.60;84.90;;;;;;5065919;28;20376;-81
2022/08/29 10:39:06;;;;;;;2.33;1.10;;;23.70;84.90;;;;;;5068384;28;20023;-79
2022/08/29 10:41:54;;;;;;;4.57;1.50;;;23.70;87.00;;;;;;5070112;28;20063;-80
2022/08/29 10:44:41;;;;;;;5.30;1.42;;;23.80;84.70;;;;;;5069594;28;20021;-79
2022/08/29 10:47:21;;;;;;;3.42;1.10;;;23.70;83.80;;;;;;5052952;28;20029;-80
2022/08/29 10:50:08;;;;;;;6.75;1.17;;;23.70;85.30;;;;;;5061120;28;20028;-80
2022/08/29 10:52:43;;;;;;;4.45;1.50;;;23.80;84.90;;;;;;5057245;28;20024;-79
2022/08/29 10:55:48;;;;;;;2.03;1.05;;;23.90;84.20;;;;;;5067923;28;20028;-79
2022/08/29 10:58:52;;;;;;;4.75;1.33;;;24.10;82.60;;;;;;5068951;28;20017;-81
2022/08/29 11:01:22;;;;;;;3.60;1.10;;;24.30;85.20;;;;;;5052156;28;20029;-78
2022/08/29 11:04:16;;;;;;;2.33;1.00;;;24.50;83.20;;;;;;5056672;28;20071;-80
2022/08/29 11:07:03;;;;;;;4.25;1.20;;;24.40;83.80;;;;;;5070008;28;20107;-81
2022/08/29 11:09:34;;;;;;;3.10;1.10;;;24.40;84.10;;;;;;5070229;28;20095;-83
2022/08/29 11:12:20;;;;;;;2.67;1.13;;;24.50;82.20;;;;;;5071388;28;20059;-82
2022/08/29 11:14:59;;;;;;;3.75;0.93;;;24.60;81.10;;;;;;5075809;28;20037;-82
2022/08/29 11:17:31;;;;;;;3.78;0.90;;;24.60;83.00;;;;;;5069968;28;20473;-80
2022/08/29 11:20:09;;;;;;;3.10;1.50;;;24.60;82.30;;;;;;5071882;28;20291;-81
2022/08/29 11:22:42;;;;;;;2.70;0.85;;;24.80;82.10;;;;;;5068622;28;20567;-82
2022/08/29 11:25:17;;;;;;;3.50;1.15;;;25.00;80.10;;;;;;5072852;28;20104;-81
2022/08/29 11:28:02;;;;;;;2.38;1.25;;;25.20;80.60;;;;;;5065943;28;20033;-81
2022/08/29 11:31:00;;;;;;;7.43;1.00;;;25.30;80.00;;;;;;5067520;28;20415;-80
2022/08/29 11:33:42;;;;;;;1.52;0.95;;;25.40;79.50;;;;;;5065680;28;20013;-81
2022/08/29 11:36:14;;;;;;;2.58;1.38;;;25.20;80.00;;;;;;5067805;28;20063;-79
2022/08/29 11:38:57;;;;;;;2.00;0.97;;;25.20;80.40;;;;;;5071746;28;20121;-80
2022/08/29 11:41:41;;;;;;;4.93;1.00;;;25.20;82.70;;;;;;5063325;28;20258;-83
2022/08/29 11:44:17;;;;;;;4.78;1.13;;;25.30;81.00;;;;;;5071173;28;20047;-82
2022/08/29 11:46:46;;;;;;;2.90;1.00;;;25.40;81.70;;;;;;5074608;28;20020;-81
2022/08/29 11:49:50;;;;;;;1.70;1.00;;;25.50;80.40;;;;;;5072344;28;20021;-81
2022/08/29 11:52:20;;;;;;;2.22;0.90;;;25.60;79.20;;;;;;5086810;28;20024;-82
2022/08/29 11:54:53;;;;;;;6.55;0.88;;;25.70;79.90;;;;;;5096313;28;20004;-81
2022/08/29 11:57:18;;;;;;;2.15;0.95;;;25.70;79.70;;;;;;5088564;28;20477;-81
2022/08/29 11:59:49;;;;;;;2.83;1.35;;;25.70;82.00;;;;;;5071641;28;20024;-82
2022/08/29 12:02:27;;;;;;;1.88;1.00;;;25.80;79.00;;;;;;5073367;28;20029;-81
2022/08/29 12:05:19;;;;;;;3.25;0.93;;;25.80;79.80;;;;;;5073094;28;20055;-81
2022/08/29 12:08:30;;;;;;;2.90;1.13;;;25.90;78.50;;;;;;5073951;28;20523;-80
2022/08/29 12:10:56;;;;;;;3.72;1.60;;;25.70;79.80;;;;;;5055304;28;20033;-81
2022/08/29 12:13:46;;;;;;;3.45;0.82;;;25.80;79.20;;;;;;5062248;28;20483;-79
2022/08/29 12:16:15;;;;;;;2.03;0.85;;;25.90;79.70;;;;;;5068631;28;20538;-79
2022/08/29 12:18:55;;;;;;;3.75;1.00;;;26.00;78.30;;;;;;5064692;28;20032;-80
2022/08/29 12:21:43;;;;;;;2.80;1.25;;;26.10;80.00;;;;;;5071633;28;20032;-82
2022/08/29 12:24:41;;;;;;;1.77;0.88;;;26.40;80.20;;;;;;5067617;28;20023;-81
2022/08/29 12:27:43;;;;;;;2.10;1.13;;;26.60;79.60;;;;;;5027793;28;20041;-82
2022/08/29 12:30:13;;;;;;;2.25;0.80;;;26.70;77.40;;;;;;5063326;28;20036;-81
2022/08/29 12:33:16;;;;;;;3.67;1.15;;;26.70;76.10;;;;;;5069122;28;20024;-81
2022/08/29 12:36:13;;;;;;;2.65;1.02;;;26.70;76.70;;;;;;5066105;28;20413;-80
2022/08/29 12:38:49;;;;;;;2.45;1.02;;;26.60;75.40;;;;;;5069268;28;20017;-80
2022/08/29 12:41:17;;;;;;;5.85;1.17;;;26.50;76.90;;;;;;5063401;28;20033;-85
2022/08/29 12:43:45;;;;;;;6.68;1.48;;;26.50;77.00;;;;;;5074371;28;20031;-84
2022/08/29 12:46:39;;;;;;;7.28;1.17;;;26.60;77.90;;;;;;5065455;28;20300;-86
2022/08/29 12:49:23;;;;;;;2.85;0.80;;;26.80;76.00;;;;;;5066888;28;20024;-83
2022/08/29 12:51:58;;;;;;;3.63;1.00;;;26.90;76.10;;;;;;5060344;28;20023;-80
2022/08/29 12:54:36;;;;;;;1.35;0.85;;;27.00;74.90;;;;;;5066055;28;20229;-79
2022/08/29 12:57:06;;;;;;;3.15;1.45;;;27.10;76.00;;;;;;5066994;28;20082;-80
2022/08/29 12:59:33;;;;;;;2.00;1.10;;;27.00;74.50;;;;;;5068477;28;20473;-81
2022/08/29 13:01:59;;;;;;;2.40;1.10;;;26.90;75.20;;;;;;5069294;28;20028;-80
2022/08/29 13:04:32;;;;;;;4.28;1.27;;;26.60;75.90;;;;;;5066856;28;20040;-80
2022/08/29 13:07:04;;;;;;;1.75;0.75;;;26.50;75.90;;;;;;5068582;28;20028;-81
2022/08/29 13:09:40;;;;;;;;;;;26.40;75.50;;;;;;5069072;28;20500;-78
2022/08/29 13:12:17;;;;;;;5.10;1.00;;;26.30;76.00;;;;;;5068799;28;19950;-81